Data for 11/12/2013

Time Sea-Level Adjusted Pressure Absolute Pressure Temperature Relative Humidity Dew Point   
(mb) (inHg) (mb) (inHg) (C) (F) (%) (C) (F)
00:05 1030 30.42 859 25.37 3.7 38.6 63 -2.7 27.1
00:10 1030 30.42 859 25.37 3.5 38.4 64 -2.7 27.1
00:15 1030 30.42 859 25.37 3.3 38 65 -2.6 27.2
00:20 1030 30.42 859 25.37 3 37.5 66 -2.7 27.1
00:25 1030 30.42 859 25.37 2.8 37.1 65 -3 26.5
00:30 1030 30.42 859 25.37 2.8 37 66 -3 26.6
00:35 1030 30.42 859 25.37 2.7 36.9 65 -3.1 26.3
00:40 1030 30.42 859 25.37 2.6 36.6 66 -3.1 26.5
00:45 1030 30.42 859 25.37 2.4 36.3 67 -3 26.5
00:50 1030 30.42 859 25.37 2.2 35.9 68 -3.1 26.4
00:55 1030 30.42 859 25.37 1.8 35.3 70 -3.1 26.4
01:00 1030 30.42 859 25.37 1.5 34.7 71 -3.2 26.2
01:05 1030 30.42 859 25.37 1.3 34.4 71 -3.3 26.1
01:10 1030 30.42 859 25.37 1.4 34.6 71 -3.3 26.1
01:15 1030 30.42 859 25.37 1.5 34.6 71 -3.3 26.1
01:20 1030 30.42 859 25.37 1.8 35.2 68 -3.4 25.8
01:25 1030 30.42 859 25.37 2.1 35.8 67 -3.3 26
01:30 1030 30.42 859 25.37 2.7 36.8 65 -3.3 26.1
01:35 1030 30.42 859 25.37 2.6 36.7 65 -3.3 26.1
01:40 1030 30.42 859 25.37 2.4 36.4 64 -3.7 25.3
01:45 1030 30.42 859 25.37 2.8 37.1 62 -3.8 25.2
01:50 1030 30.42 859 25.37 3 37.4 59 -4.1 24.6
01:55 1030 30.42 859 25.37 3.8 38.9 60 -3.3 26
02:00 1030 30.42 859 25.37 3.2 37.7 62 -3.3 26
02:05 1030 30.42 859 25.37 2.5 36.6 65 -3.4 25.9
02:10 1030 30.42 859 25.37 2.2 35.9 66 -3.6 25.5
02:15 1030 30.42 859 25.37 2 35.7 67 -3.5 25.6
02:20 1029 30.39 859 25.37 2.2 36 66 -3.5 25.6
02:25 1029 30.39 859 25.37 2.5 36.5 64 -3.7 25.3
02:30 1029 30.39 859 25.37 2.5 36.5 64 -3.5 25.6
02:35 1029 30.39 859 25.37 2.4 36.3 64 -3.8 25.2
02:40 1029 30.39 859 25.37 2.5 36.5 64 -3.7 25.4
02:45 1030 30.42 859 25.37 2.6 36.7 64 -3.6 25.5
02:50 1030 30.42 859 25.37 2.6 36.7 64 -3.6 25.5
02:55 1030 30.42 859 25.37 2.4 36.3 64 -3.6 25.5
03:00 1030 30.42 859 25.37 2.3 36.2 65 -3.6 25.5
03:05 1030 30.42 859 25.37 2.4 36.3 65 -3.6 25.5
03:10 1030 30.42 859 25.37 2.4 36.4 64 -3.7 25.3
03:15 1030 30.42 859 25.37 2.5 36.4 64 -3.7 25.3
03:20 1030 30.42 859 25.37 2.3 36.2 65 -3.5 25.6
03:25 1030 30.42 859 25.37 1.9 35.4 67 -3.7 25.3
03:30 1030 30.42 859 25.37 1.6 34.9 67 -3.8 25.1
03:35 1030 30.42 859 25.37 1.6 34.9 68 -3.7 25.4
03:40 1030 30.42 859 25.37 1.9 35.5 66 -3.7 25.4
03:45 1030 30.42 859 25.37 2.2 35.9 66 -3.5 25.7
03:50 1030 30.42 859 25.37 1.9 35.4 68 -3.5 25.8
03:55 1030 30.42 859 25.37 1.8 35.2 68 -3.4 25.9
04:00 1030 30.42 859 25.37 1.2 34.2 70 -3.6 25.5
04:05 1030 30.42 859 25.37 1.3 34.3 68 -4 24.9
04:10 1029 30.39 859 25.37 1.5 34.7 68 -3.9 25.1
04:15 1029 30.39 859 25.37 1.1 34 70 -3.7 25.3
04:20 1029 30.39 859 25.37 0.3 32.6 73 -4 24.9
04:25 1029 30.39 859 25.37 0.3 32.5 71 -4.4 24.1
04:30 1029 30.39 859 25.37 1.3 34.4 65 -4.6 23.7
04:35 1029 30.39 858 25.34 1.9 35.4 65 -3.9 24.9
04:40 1029 30.39 858 25.34 1.7 35.1 66 -4 24.7
04:45 1029 30.39 858 25.34 1.5 34.8 66 -4.2 24.4
04:50 1029 30.39 858 25.34 1.6 34.9 66 -4.2 24.5
04:55 1029 30.39 858 25.34 1.8 35.2 65 -4.2 24.5
05:00 1029 30.39 858 25.34 1.7 35.1 65 -4.1 24.6
05:05 1029 30.39 858 25.34 1.6 34.9 65 -4.3 24.2
05:10 1029 30.39 858 25.34 1.3 34.3 66 -4.4 24.1
05:15 1029 30.39 858 25.34 1.8 35.2 61 -4.9 23.1
05:20 1029 30.39 858 25.34 3 37.3 58 -4.6 23.8
05:25 1029 30.39 858 25.34 3.2 37.7 58 -4.3 24.2
05:30 1029 30.39 858 25.34 3.1 37.6 60 -4 24.9
05:35 1029 30.39 858 25.34 2.7 36.8 61 -4.1 24.7
05:40 1029 30.39 858 25.34 2.3 36.1 62 -4.3 24.3
05:45 1029 30.39 858 25.34 1.7 35.1 64 -4.4 24.1
05:50 1029 30.39 858 25.34 2.5 36.4 57 -5.2 22.6
05:55 1029 30.39 858 25.34 3.7 38.6 54 -4.7 23.5
06:00 1029 30.39 858 25.34 3.5 38.3 57 -4.2 24.4
06:05 1029 30.39 858 25.34 1.9 35.5 60 -5 23.1
06:10 1029 30.39 858 25.34 1.9 35.4 58 -5.4 22.3
06:15 1029 30.39 858 25.34 2.6 36.7 55 -5.5 22.1
06:20 1029 30.39 858 25.34 3.2 37.8 53 -5.4 22.3
06:25 1029 30.39 858 25.34 2.7 36.8 58 -4.7 23.5
06:30 1029 30.39 858 25.34 1.6 34.9 61 -5 22.9
06:35 1029 30.39 858 25.34 1.1 34 63 -5 22.9
06:40 1029 30.39 858 25.34 1.6 34.8 61 -5.2 22.6
06:45 1029 30.39 858 25.34 2.5 36.6 59 -4.6 23.8
06:50 1029 30.39 858 25.34 2.5 36.6 61 -4.3 24.3
06:55 1029 30.39 858 25.34 2.3 36.1 61 -4.4 24
07:00 1029 30.39 858 25.34 1.9 35.4 64 -4.3 24.3
07:05 1029 30.39 858 25.34 1.4 34.6 65 -4.4 24.2
07:10 1029 30.39 858 25.34 1 33.9 66 -4.6 23.8
07:15 1029 30.39 858 25.34 1.1 34.1 65 -4.8 23.4
07:20 1029 30.39 858 25.34 1.2 34.2 66 -4.5 23.9
07:25 1029 30.39 858 25.34 1.1 34 66 -4.6 23.7
07:30 1029 30.39 858 25.34 0.8 33.5 68 -4.4 24
07:35 1029 30.39 858 25.34 0.7 33.2 64 -5.4 22.3
07:40 1029 30.39 858 25.34 1.6 34.9 62 -4.8 23.3
07:45 1029 30.39 858 25.34 1.3 34.3 63 -5 23
07:50 1029 30.39 858 25.34 1.3 34.3 62 -5.2 22.6
07:55 1029 30.39 858 25.34 1.7 35 61 -5 22.9
08:00 1028 30.36 858 25.34 1.1 34 63 -5.2 22.7
08:05 1028 30.36 858 25.34 0.9 33.7 64 -5.1 22.8
08:10 1028 30.36 858 25.34 1 33.9 64 -5.1 22.8
08:15 1029 30.39 858 25.34 1.3 34.3 62 -5.2 22.6
08:20 1029 30.39 858 25.34 1.5 34.7 61 -5.2 22.6
08:25 1029 30.39 858 25.34 1.7 35.1 60 -5.3 22.5
08:30 1029 30.39 858 25.34 1.9 35.4 60 -5 23
08:35 1029 30.39 858 25.34 1.8 35.3 59 -5.3 22.4
08:40 1029 30.39 858 25.34 2 35.5 58 -5.4 22.4
08:45 1029 30.39 858 25.34 2.2 36 57 -5.3 22.4
08:50 1029 30.39 858 25.34 2.5 36.6 57 -5.1 22.8
08:55 1029 30.39 858 25.34 2.4 36.3 58 -5 23
09:00 1029 30.39 858 25.34 2.1 35.8 60 -4.8 23.4
09:05 1029 30.39 858 25.34 1.8 35.3 64 -4.2 24.4
09:10 1029 30.39 858 25.34 1.8 35.3 62 -4.7 23.6
09:15 1029 30.39 858 25.34 2 35.6 64 -4.2 24.5
09:20 1029 30.39 858 25.34 2 35.7 64 -4 24.7
09:25 1029 30.39 858 25.34 2.1 35.7 65 -3.8 25.1
09:30 1029 30.39 858 25.34 2.4 36.3 65 -3.5 25.7
09:35 1029 30.39 858 25.34 2.9 37.2 66 -2.9 26.9
09:40 1029 30.39 858 25.34 3.1 37.7 66 -2.6 27.3
09:45 1029 30.39 858 25.34 3.5 38.4 63 -2.8 26.9
09:50 1029 30.39 858 25.34 3.7 38.6 62 -3 26.6
09:55 1029 30.39 858 25.34 3.9 39 59 -3.5 25.7
10:00 1029 30.39 858 25.34 4.5 40.1 57 -3.3 26
10:05 1029 30.39 858 25.34 4.8 40.7 54 -3.7 25.3
10:10 1029 30.39 858 25.34 5 40.9 53 -3.7 25.3
10:15 1028 30.36 858 25.34 5.4 41.8 51 -3.9 25
10:20 1028 30.36 858 25.34 5.9 42.6 52 -3.3 26
10:25 1028 30.36 858 25.34 5.9 42.7 48 -4.3 24.2
10:30 1029 30.39 858 25.34 6.3 43.4 48 -3.8 25.2
10:35 1029 30.39 858 25.34 7.3 45.1 47 -3.4 25.9
10:40 1029 30.39 858 25.34 7.5 45.6 47 -3 26.5
10:45 1029 30.39 858 25.34 7.7 45.9 49 -2.4 27.7
10:50 1029 30.39 858 25.34 6.6 43.9 54 -2.1 28.2
10:55 1028 30.36 858 25.34 5.6 42.1 56 -2.5 27.5
11:00 1028 30.36 858 25.34 5.7 42.3 56 -2.4 27.7
11:05 1028 30.36 858 25.34 5.7 42.3 55 -2.7 27.1
11:10 1028 30.36 858 25.34 5.6 42.1 54 -3 26.7
11:15 1028 30.36 858 25.34 6.2 43.2 52 -2.8 26.9
11:20 1028 30.36 858 25.34 7.3 45.1 47 -3.2 26.3
11:25 1028 30.36 858 25.34 7.9 46.2 47 -2.7 27.1
11:30 1028 30.36 858 25.34 7.8 46 47 -2.9 26.8
11:35 1028 30.36 858 25.34 8.4 47.1 44 -3.2 26.3
11:40 1028 30.36 858 25.34 9.1 48.3 43 -3 26.7
11:45 1028 30.36 857 25.31 9 48.1 41 -3.6 25.6
11:50 1028 30.36 858 25.34 9.2 48.5 40 -3.7 25.4
11:55 1028 30.36 857 25.31 9.4 49 40 -3.6 25.6
12:00 1028 30.36 857 25.31 10 49.9 39 -3.3 26
12:05 1028 30.36 857 25.31 10.2 50.3 40 -2.9 26.9
12:10 1028 30.36 857 25.31 10.2 50.3 39 -3.1 26.4
12:15 1028 30.36 857 25.31 9.6 49.3 41 -2.8 26.9
12:20 1028 30.36 857 25.31 9.8 49.7 39 -3.3 26
12:25 1028 30.36 857 25.31 9.9 49.8 41 -2.8 26.9
12:30 1028 30.36 857 25.31 9.4 48.8 41 -3.4 26
12:35 1028 30.36 857 25.31 9.2 48.5 40 -3.6 25.6
12:40 1028 30.36 857 25.31 9.9 49.9 38 -3.6 25.5
12:45 1027 30.33 857 25.31 10.4 50.7 37 -3.5 25.6
12:50 1027 30.33 857 25.31 11 51.9 37 -2.9 26.8
12:55 1027 30.33 857 25.31 10.8 51.4 39 -2.6 27.4
13:00 1027 30.33 856 25.28 11 51.9 38 -2.8 27
13:05 1027 30.33 856 25.28 11.5 52.6 39 -2 28.4
13:10 1027 30.33 856 25.28 11.4 52.4 39 -2.1 28.2
13:15 1027 30.33 856 25.28 11.5 52.6 38 -2.3 27.9
13:20 1027 30.33 856 25.28 12.2 54 35 -2.8 27
13:25 1027 30.33 856 25.28 12.4 54.4 35 -2.4 27.7
13:30 1027 30.33 856 25.28 12.1 53.8 36 -2.4 27.6
13:35 1027 30.33 856 25.28 12.8 55 34 -2.8 26.9
13:40 1027 30.33 856 25.28 13.7 56.6 33 -2.3 27.8
13:45 1027 30.33 856 25.28 13.8 56.9 32 -2.3 27.8
13:50 1027 30.33 856 25.28 13.4 56.1 36 -1.3 29.6
13:55 1027 30.33 856 25.28 13 55.4 34 -2.4 27.6
14:00 1026 30.3 856 25.28 13.2 55.7 34 -2.3 27.8
14:05 1026 30.3 856 25.28 12.8 55 35 -2.3 27.8
14:10 1026 30.3 856 25.28 12.3 54.2 36 -2.5 27.6
14:15 1026 30.3 856 25.28 12.2 53.9 34 -3.3 26.1
14:20 1026 30.3 855 25.25 13.2 55.7 31 -3.5 25.7
14:25 1026 30.3 855 25.25 13.8 56.8 33 -2.2 28
14:30 1026 30.3 855 25.25 12.9 55.1 32 -3.3 26
14:35 1026 30.3 855 25.25 13.2 55.7 33 -2.7 27.2
14:40 1026 30.3 855 25.25 12.6 54.7 34 -2.8 27
14:45 1026 30.3 855 25.25 12.6 54.7 34 -3 26.6
14:50 1026 30.3 855 25.25 13.3 55.9 32 -3 26.5
14:55 1026 30.3 855 25.25 14.1 57.4 31 -2.7 27.2
15:00 1026 30.3 855 25.25 14.3 57.7 31 -2.8 27
15:05 1026 30.3 855 25.25 13.3 55.9 34 -2.2 28.1
15:10 1026 30.3 855 25.25 12.9 55.3 32 -3.1 26.3
15:15 1026 30.3 855 25.25 13.3 55.9 31 -3.4 25.9
15:20 1026 30.3 855 25.25 14.6 58.3 27 -3.9 25
15:25 1026 30.3 855 25.25 15 59 29 -3 26.7
15:30 1026 30.3 855 25.25 14.4 57.9 29 -3.3 26
15:35 1026 30.3 855 25.25 13.9 57 32 -2.4 27.6
15:40 1026 30.3 855 25.25 14.6 58.3 29 -3.1 26.4
15:45 1026 30.3 855 25.25 15.5 59.9 30 -1.9 28.6
15:50 1026 30.3 855 25.25 15.5 59.8 32 -1.1 30
15:55 1026 30.3 855 25.25 15.2 59.3 34 -0.7 30.8
16:00 1026 30.3 855 25.25 15.1 59.1 33 -1.1 30
16:05 1026 30.3 855 25.25 15.2 59.4 33 -0.9 30.3
16:10 1026 30.3 855 25.25 14.3 57.8 33 -1.7 28.9
16:15 1026 30.3 855 25.25 14.9 58.8 33 -1.3 29.6
16:20 1026 30.3 855 25.25 14.8 58.6 32 -1.6 29.1
16:25 1026 30.3 855 25.25 14.8 58.7 32 -1.5 29.3
16:30 1026 30.3 855 25.25 14.5 58 34 -1.1 30
16:35 1026 30.3 855 25.25 13.7 56.7 36 -1.1 30
16:40 1026 30.3 855 25.25 13.6 56.4 36 -1.2 29.9
16:45 1026 30.3 855 25.25 13.5 56.2 36 -1.1 30.1
16:50 1026 30.3 855 25.25 13.5 56.3 36 -1.3 29.7
16:55 1026 30.3 855 25.25 13.9 57 34 -1.5 29.3
17:00 1025 30.27 855 25.25 14.1 57.5 34 -1.5 29.4
17:05 1025 30.27 855 25.25 14.5 58.1 34 -1.1 30
17:10 1025 30.27 855 25.25 13.8 56.8 38 -0.4 31.3
17:15 1025 30.27 855 25.25 13.2 55.7 37 -1.1 30.1
17:20 1025 30.27 854 25.22 13.2 55.7 39 -0.5 31.1
17:25 1025 30.27 854 25.22 12.7 54.8 40 -0.6 30.9
17:30 1025 30.27 854 25.22 12.4 54.4 40 -0.8 30.6
17:35 1025 30.27 854 25.22 12 53.5 40 -1.1 30
17:40 1025 30.27 854 25.22 11.8 53.2 39 -1.5 29.3
17:45 1025 30.27 854 25.22 12 53.7 39 -1.5 29.3
17:50 1025 30.27 854 25.22 11.9 53.4 39 -1.6 29.1
17:55 1025 30.27 854 25.22 11.7 53.1 39 -1.8 28.7
18:00 1025 30.27 854 25.22 11.6 52.9 39 -1.7 29
18:05 1025 30.27 854 25.22 11.2 52.2 42 -1.1 30
18:10 1025 30.27 854 25.22 10.9 51.6 42 -1.4 29.5
18:15 1025 30.27 854 25.22 10.4 50.8 46 -0.8 30.6
18:20 1025 30.27 854 25.22 10.3 50.5 46 -0.9 30.5
18:25 1025 30.27 854 25.22 10 50 47 -0.6 30.8
18:30 1025 30.27 854 25.22 9.8 49.6 48 -0.7 30.8
18:35 1025 30.27 854 25.22 9.7 49.4 47 -1 30.1
18:40 1025 30.27 854 25.22 9.5 49.2 50 -0.5 31.2
18:45 1025 30.27 854 25.22 9.1 48.3 48 -1.2 29.8
18:50 1025 30.27 854 25.22 9 48.1 47 -1.6 29.1
18:55 1025 30.27 854 25.22 9.3 48.7 50 -0.6 30.9
19:00 1025 30.27 854 25.22 8.5 47.2 50 -1.3 29.7
19:05 1025 30.27 854 25.22 8.5 47.3 49 -1.5 29.3
19:10 1025 30.27 854 25.22 8.3 46.9 49 -1.9 28.7
19:15 1025 30.27 854 25.22 8.3 46.9 49 -1.8 28.7
19:20 1025 30.27 854 25.22 8 46.4 51 -1.5 29.3
19:25 1025 30.27 854 25.22 7.5 45.4 53 -1.6 29.2
19:30 1025 30.27 854 25.22 7.2 45 52 -1.9 28.6
19:35 1025 30.27 855 25.25 7.2 44.9 52 -1.9 28.5
19:40 1025 30.27 855 25.25 7.6 45.6 49 -2.4 27.7
19:45 1025 30.27 855 25.25 8.4 47 48 -2.1 28.2
19:50 1025 30.27 855 25.25 8.8 47.8 47 -1.8 28.7
19:55 1026 30.3 855 25.25 8.6 47.4 48 -1.7 29
20:00 1025 30.27 855 25.25 8.1 46.7 51 -1.3 29.6
20:05 1025 30.27 855 25.25 7.1 44.8 52 -2.2 28.1
20:10 1026 30.3 855 25.25 6.7 44.1 53 -2.2 28.1
20:15 1026 30.3 855 25.25 7.2 45 51 -2.1 28.2
20:20 1026 30.3 855 25.25 6.8 44.3 49 -3.2 26.3
20:25 1026 30.3 855 25.25 7 44.7 48 -3.3 26
20:30 1025 30.27 855 25.25 7 44.6 49 -3 26.6
20:35 1025 30.27 855 25.25 7.1 44.7 46 -3.9 25
20:40 1025 30.27 855 25.25 8.2 46.8 45 -2.9 26.8
20:45 1025 30.27 855 25.25 8 46.4 44 -3.4 25.9
20:50 1025 30.27 855 25.25 7.5 45.4 47 -3.2 26.3
20:55 1025 30.27 855 25.25 7.2 45 47 -3.4 26
21:00 1025 30.27 855 25.25 7.1 44.8 47 -3.5 25.7
21:05 1025 30.27 855 25.25 6.7 44.1 48 -3.5 25.7
21:10 1025 30.27 855 25.25 6.6 43.9 48 -3.5 25.7
21:15 1025 30.27 855 25.25 6.1 43 51 -3.4 26
21:20 1025 30.27 854 25.22 5.8 42.5 52 -3.2 26.2
21:25 1025 30.27 854 25.22 5.7 42.2 50 -4 24.8
21:30 1025 30.27 854 25.22 6.3 43.3 49 -3.7 25.3
21:35 1025 30.27 854 25.22 6.4 43.6 47 -4 24.7
21:40 1025 30.27 854 25.22 7.3 45.1 45 -3.9 25.1
21:45 1025 30.27 854 25.22 7.2 45 45 -3.8 25.2
21:50 1025 30.27 854 25.22 7.6 45.6 44 -3.8 25.1
21:55 1025 30.27 854 25.22 7.9 46.3 46 -2.9 26.7
22:00 1025 30.27 854 25.22 7.6 45.8 47 -3 26.6
22:05 1025 30.27 854 25.22 7.6 45.6 46 -3.4 25.8
22:10 1025 30.27 854 25.22 7.8 46.1 45 -3.3 26
22:15 1025 30.27 854 25.22 7.5 45.5 45 -3.5 25.6
22:20 1025 30.27 854 25.22 7.4 45.3 46 -3.4 25.8
22:25 1025 30.27 854 25.22 7.5 45.4 46 -3.3 26.1
22:30 1025 30.27 854 25.22 7.3 45.2 46 -3.4 25.9
22:35 1025 30.27 854 25.22 7.3 45.1 48 -3.1 26.3
22:40 1025 30.27 854 25.22 7.3 45.2 47 -3.3 26.1
22:45 1025 30.27 854 25.22 7.5 45.5 47 -3.2 26.3
22:50 1025 30.27 854 25.22 7.7 45.8 45 -3.6 25.6
22:55 1025 30.27 854 25.22 8.2 46.8 43 -3.6 25.5
23:00 1025 30.27 854 25.22 8.4 47.1 43 -3.5 25.7
23:05 1025 30.27 854 25.22 8.4 47.1 41 -4 24.8
23:10 1025 30.27 854 25.22 8.8 47.9 40 -4.1 24.6
23:15 1025 30.27 854 25.22 8.8 47.9 41 -3.8 25.2
23:20 1025 30.27 854 25.22 8.7 47.7 41 -3.9 24.9
23:25 1025 30.27 854 25.22 8.7 47.7 40 -4 24.9
23:30 1025 30.27 854 25.22 8.7 47.6 41 -3.7 25.4
23:35 1025 30.27 854 25.22 8.3 47 44 -3.1 26.3
23:40 1025 30.27 854 25.22 7.9 46.2 45 -3.2 26.2
23:45 1025 30.27 854 25.22 7.7 45.8 46 -3.3 26
23:50 1025 30.27 854 25.22 7.3 45.1 46 -3.5 25.8
23:55 1025 30.27 854 25.22 7.4 45.2 45 -3.8 25.1
24:00 1025 30.27 854 25.22 7.8 46 43 -4.2 24.5